sensor_id;sensor_type;location;lat;lon;timestamp;pressure;altitude;pressure_sealevel;temperature;humidity
29315;BME280;16320;53.954;9.506;2023-11-18T00:00:33;102167.91;;;5.11;100.00
29315;BME280;16320;53.954;9.506;2023-11-18T00:03:01;102161.84;;;5.12;100.00
29315;BME280;16320;53.954;9.506;2023-11-18T00:05:30;102164.47;;;5.08;100.00
29315;BME280;16320;53.954;9.506;2023-11-18T00:07:58;102164.47;;;5.05;100.00
29315;BME280;16320;53.954;9.506;2023-11-18T00:10:27;102154.13;;;4.95;100.00
29315;BME280;16320;53.954;9.506;2023-11-18T00:12:56;102165.41;;;4.94;100.00
29315;BME280;16320;53.954;9.506;2023-11-18T00:15:24;102165.44;;;4.88;100.00
29315;BME280;16320;53.954;9.506;2023-11-18T00:17:52;102163.69;;;4.87;100.00
29315;BME280;16320;53.954;9.506;2023-11-18T00:20:20;102167.19;;;4.83;100.00
29315;BME280;16320;53.954;9.506;2023-11-18T00:22:51;102172.41;;;4.86;100.00
29315;BME280;16320;53.954;9.506;2023-11-18T00:25:19;102170.66;;;4.88;100.00
29315;BME280;16320;53.954;9.506;2023-11-18T00:27:47;102171.50;;;4.89;100.00
29315;BME280;16320;53.954;9.506;2023-11-18T00:30:16;102165.44;;;4.88;100.00
29315;BME280;16320;53.954;9.506;2023-11-18T00:32:45;102163.69;;;4.87;100.00
29315;BME280;16320;53.954;9.506;2023-11-18T00:35:13;102162.00;;;4.85;100.00
29315;BME280;16320;53.954;9.506;2023-11-18T00:37:41;102169.78;;;4.89;100.00
29315;BME280;16320;53.954;9.506;2023-11-18T00:40:09;102178.44;;;4.93;100.00
29315;BME280;16320;53.954;9.506;2023-11-18T00:42:38;102174.97;;;4.92;100.00
29315;BME280;16320;53.954;9.506;2023-11-18T00:45:08;102177.56;;;4.95;100.00
29315;BME280;16320;53.954;9.506;2023-11-18T00:47:39;102176.69;;;4.98;100.00
29315;BME280;16320;53.954;9.506;2023-11-18T00:50:08;102170.63;;;4.94;100.00
29315;BME280;16320;53.954;9.506;2023-11-18T00:52:37;102172.38;;;4.94;100.00
29315;BME280;16320;53.954;9.506;2023-11-18T00:55:08;102179.25;;;5.03;100.00
29315;BME280;16320;53.954;9.506;2023-11-18T00:57:39;102176.66;;;5.01;100.00
29315;BME280;16320;53.954;9.506;2023-11-18T01:00:10;102172.38;;;4.92;100.00
29315;BME280;16320;53.954;9.506;2023-11-18T01:02:44;102178.44;;;4.94;100.00
29315;BME280;16320;53.954;9.506;2023-11-18T01:05:14;102187.13;;;4.89;100.00
29315;BME280;16320;53.954;9.506;2023-11-18T01:07:42;102191.47;;;4.88;100.00
29315;BME280;16320;53.954;9.506;2023-11-18T01:10:12;102187.09;;;4.95;100.00
29315;BME280;16320;53.954;9.506;2023-11-18T01:12:41;102191.47;;;4.91;100.00
29315;BME280;16320;53.954;9.506;2023-11-18T01:15:12;102187.16;;;4.86;100.00
29315;BME280;16320;53.954;9.506;2023-11-18T01:17:53;102193.25;;;4.83;100.00
29315;BME280;16320;53.954;9.506;2023-11-18T01:20:30;102182.84;;;4.80;100.00
29315;BME280;16320;53.954;9.506;2023-11-18T01:23:00;102189.81;;;4.75;100.00
29315;BME280;16320;53.954;9.506;2023-11-18T01:25:28;102181.16;;;4.70;100.00
29315;BME280;16320;53.954;9.506;2023-11-18T01:27:56;102179.41;;;4.66;100.00
29315;BME280;16320;53.954;9.506;2023-11-18T01:30:24;102182.88;;;4.68;100.00
29315;BME280;16320;53.954;9.506;2023-11-18T01:32:53;102177.72;;;4.63;100.00
29315;BME280;16320;53.954;9.506;2023-11-18T01:35:21;102172.50;;;4.62;100.00
29315;BME280;16320;53.954;9.506;2023-11-18T01:37:54;102173.38;;;4.56;100.00
29315;BME280;16320;53.954;9.506;2023-11-18T01:40:22;102181.19;;;4.51;100.00
29315;BME280;16320;53.954;9.506;2023-11-18T01:42:50;102184.69;;;4.47;100.00
29315;BME280;16320;53.954;9.506;2023-11-18T01:45:18;102176.00;;;4.48;100.00
29315;BME280;16320;53.954;9.506;2023-11-18T01:47:47;102177.75;;;4.45;100.00
29315;BME280;16320;53.954;9.506;2023-11-18T01:50:16;102173.44;;;4.42;100.00
29315;BME280;16320;53.954;9.506;2023-11-18T01:52:46;102179.50;;;4.41;100.00
29315;BME280;16320;53.954;9.506;2023-11-18T01:55:14;102191.59;;;4.48;100.00
29315;BME280;16320;53.954;9.506;2023-11-18T01:57:43;102191.66;;;4.45;100.00
29315;BME280;16320;53.954;9.506;2023-11-18T02:00:12;102182.09;;;4.38;100.00
29315;BME280;16320;53.954;9.506;2023-11-18T02:02:44;102183.00;;;4.31;100.00
29315;BME280;16320;53.954;9.506;2023-11-18T02:05:13;102193.41;;;4.28;100.00
29315;BME280;16320;53.954;9.506;2023-11-18T02:07:43;102192.56;;;4.24;100.00
29315;BME280;16320;53.954;9.506;2023-11-18T02:10:14;102193.41;;;4.21;100.00
29315;BME280;16320;53.954;9.506;2023-11-18T02:13:12;102202.97;;;4.22;100.00
29315;BME280;16320;53.954;9.506;2023-11-18T02:15:47;102209.03;;;4.23;100.00
29315;BME280;16320;53.954;9.506;2023-11-18T02:18:15;102214.22;;;4.15;100.00
29315;BME280;16320;53.954;9.506;2023-11-18T02:20:46;102218.56;;;4.09;100.00
29315;BME280;16320;53.954;9.506;2023-11-18T02:23:15;102210.75;;;4.01;100.00
29315;BME280;16320;53.954;9.506;2023-11-18T02:25:46;102217.72;;;4.02;100.00
29315;BME280;16320;53.954;9.506;2023-11-18T02:28:14;102226.38;;;4.13;100.00
29315;BME280;16320;53.954;9.506;2023-11-18T02:30:44;102229.81;;;4.15;100.00
29315;BME280;16320;53.954;9.506;2023-11-18T02:34:04;102222.03;;;4.18;100.00
29315;BME280;16320;53.954;9.506;2023-11-18T02:36:31;102221.16;;;4.22;100.00
29315;BME280;16320;53.954;9.506;2023-11-18T02:39:12;102232.44;;;4.31;100.00
29315;BME280;16320;53.954;9.506;2023-11-18T02:41:49;102229.78;;;4.38;100.00
29315;BME280;16320;53.954;9.506;2023-11-18T02:44:20;102235.84;;;4.47;100.00
29315;BME280;16320;53.954;9.506;2023-11-18T02:46:50;102236.72;;;4.50;100.00
29315;BME280;16320;53.954;9.506;2023-11-18T02:49:18;102235.00;;;4.49;100.00
29315;BME280;16320;53.954;9.506;2023-11-18T02:51:46;102238.44;;;4.51;100.00
29315;BME280;16320;53.954;9.506;2023-11-18T02:54:14;102246.25;;;4.54;100.00
29315;BME280;16320;53.954;9.506;2023-11-18T02:56:43;102236.69;;;4.58;100.00
29315;BME280;16320;53.954;9.506;2023-11-18T02:59:11;102241.91;;;4.59;100.00
29315;BME280;16320;53.954;9.506;2023-11-18T03:01:39;102242.78;;;4.63;100.00
29315;BME280;16320;53.954;9.506;2023-11-18T03:04:08;102242.78;;;4.65;100.00
29315;BME280;16320;53.954;9.506;2023-11-18T03:06:38;102237.56;;;4.63;100.00
29315;BME280;16320;53.954;9.506;2023-11-18T03:09:08;102236.66;;;4.67;100.00
29315;BME280;16320;53.954;9.506;2023-11-18T03:11:37;102229.72;;;4.68;100.00
29315;BME280;16320;53.954;9.506;2023-11-18T03:14:05;102234.06;;;4.72;100.00
29315;BME280;16320;53.954;9.506;2023-11-18T03:16:37;102232.31;;;4.74;100.00
29315;BME280;16320;53.954;9.506;2023-11-18T03:19:06;102231.44;;;4.75;100.00
29315;BME280;16320;53.954;9.506;2023-11-18T03:21:35;102237.50;;;4.79;100.00
29315;BME280;16320;53.954;9.506;2023-11-18T03:24:09;102227.94;;;4.79;100.00
29315;BME280;16320;53.954;9.506;2023-11-18T03:26:37;102234.91;;;4.80;100.00
29315;BME280;16320;53.954;9.506;2023-11-18T03:29:05;102242.72;;;4.82;100.00
29315;BME280;16320;53.954;9.506;2023-11-18T03:31:38;102250.50;;;4.83;100.00
29315;BME280;16320;53.954;9.506;2023-11-18T03:34:06;102247.06;;;4.84;100.00
29315;BME280;16320;53.954;9.506;2023-11-18T03:36:35;102250.50;;;4.83;100.00
29315;BME280;16320;53.954;9.506;2023-11-18T03:39:03;102248.75;;;4.85;100.00
29315;BME280;16320;53.954;9.506;2023-11-18T03:41:31;102247.00;;;4.87;100.00
29315;BME280;16320;53.954;9.506;2023-11-18T03:43:59;102244.44;;;4.86;100.00
29315;BME280;16320;53.954;9.506;2023-11-18T03:46:27;102244.41;;;4.89;100.00
29315;BME280;16320;53.954;9.506;2023-11-18T03:49:01;102248.75;;;4.85;100.00
29315;BME280;16320;53.954;9.506;2023-11-18T03:51:29;102253.97;;;4.85;100.00
29315;BME280;16320;53.954;9.506;2023-11-18T03:53:57;102250.50;;;4.83;100.00
29315;BME280;16320;53.954;9.506;2023-11-18T03:56:25;102247.06;;;4.81;100.00
29315;BME280;16320;53.954;9.506;2023-11-18T03:58:55;102248.75;;;4.85;100.00
29315;BME280;16320;53.954;9.506;2023-11-18T04:01:25;102242.72;;;4.79;100.00
29315;BME280;16320;53.954;9.506;2023-11-18T04:03:54;102253.97;;;4.82;100.00
29315;BME280;16320;53.954;9.506;2023-11-18T04:06:23;102253.13;;;4.77;100.00
29315;BME280;16320;53.954;9.506;2023-11-18T04:08:51;102254.88;;;4.80;100.00
29315;BME280;16320;53.954;9.506;2023-11-18T04:11:19;102255.75;;;4.74;100.00
29315;BME280;16320;53.954;9.506;2023-11-18T04:13:48;102252.28;;;4.72;100.00
29315;BME280;16320;53.954;9.506;2023-11-18T04:16:16;102245.34;;;4.71;100.00
29315;BME280;16320;53.954;9.506;2023-11-18T04:18:46;102241.88;;;4.64;100.00
29315;BME280;16320;53.954;9.506;2023-11-18T04:21:14;102246.25;;;4.61;100.00
29315;BME280;16320;53.954;9.506;2023-11-18T04:23:43;102248.00;;;4.57;100.00
29315;BME280;16320;53.954;9.506;2023-11-18T04:26:13;102252.28;;;4.66;100.00
29315;BME280;16320;53.954;9.506;2023-11-18T04:28:41;102255.78;;;4.62;100.00
29315;BME280;16320;53.954;9.506;2023-11-18T04:31:10;102254.91;;;4.61;100.00
29315;BME280;16320;53.954;9.506;2023-11-18T04:33:38;102255.75;;;4.71;100.00
29315;BME280;16320;53.954;9.506;2023-11-18T04:36:09;102248.84;;;4.68;100.00
29315;BME280;16320;53.954;9.506;2023-11-18T04:38:37;102254.03;;;4.67;100.00
29315;BME280;16320;53.954;9.506;2023-11-18T04:41:07;102251.44;;;4.65;100.00
29315;BME280;16320;53.954;9.506;2023-11-18T04:43:35;102250.53;;;4.72;100.00
29315;BME280;16320;53.954;9.506;2023-11-18T04:46:11;102251.41;;;4.74;100.00
29315;BME280;16320;53.954;9.506;2023-11-18T04:48:41;102250.53;;;4.71;100.00
29315;BME280;16320;53.954;9.506;2023-11-18T04:51:11;102240.13;;;4.71;100.00
29315;BME280;16320;53.954;9.506;2023-11-18T04:53:39;102236.66;;;4.75;100.00
29315;BME280;16320;53.954;9.506;2023-11-18T04:56:07;102236.66;;;4.75;100.00
29315;BME280;16320;53.954;9.506;2023-11-18T04:58:38;102226.25;;;4.78;100.00
29315;BME280;16320;53.954;9.506;2023-11-18T05:01:07;102218.44;;;4.76;100.00
29315;BME280;16320;53.954;9.506;2023-11-18T05:03:36;102219.28;;;4.74;100.00
29315;BME280;16320;53.954;9.506;2023-11-18T05:06:05;102225.34;;;4.81;100.00
29315;BME280;16320;53.954;9.506;2023-11-18T05:08:35;102221.03;;;4.81;100.00
29315;BME280;16320;53.954;9.506;2023-11-18T05:11:07;102207.13;;;4.79;100.00
29315;BME280;16320;53.954;9.506;2023-11-18T05:13:35;102215.81;;;4.78;100.00
29315;BME280;16320;53.954;9.506;2023-11-18T05:16:04;102210.63;;;4.80;100.00
29315;BME280;16320;53.954;9.506;2023-11-18T05:18:32;102205.41;;;4.78;100.00
29315;BME280;16320;53.954;9.506;2023-11-18T05:21:04;102201.91;;;4.77;100.00
29315;BME280;16320;53.954;9.506;2023-11-18T05:23:38;102195.84;;;4.79;100.00
29315;BME280;16320;53.954;9.506;2023-11-18T05:26:06;102189.81;;;4.75;100.00
29315;BME280;16320;53.954;9.506;2023-11-18T05:28:35;102184.59;;;4.75;100.00
29315;BME280;16320;53.954;9.506;2023-11-18T05:31:05;102191.50;;;4.79;100.00
29315;BME280;16320;53.954;9.506;2023-11-18T05:33:33;102177.63;;;4.77;100.00
29315;BME280;16320;53.954;9.506;2023-11-18T05:36:05;102176.78;;;4.76;100.00
29315;BME280;16320;53.954;9.506;2023-11-18T05:38:33;102174.19;;;4.75;100.00
29315;BME280;16320;53.954;9.506;2023-11-18T05:41:04;102172.44;;;4.71;100.00
29315;BME280;16320;53.954;9.506;2023-11-18T05:43:43;102168.13;;;4.71;100.00
29315;BME280;16320;53.954;9.506;2023-11-18T05:46:19;102170.72;;;4.71;100.00
29315;BME280;16320;53.954;9.506;2023-11-18T05:48:50;102167.25;;;4.71;100.00
29315;BME280;16320;53.954;9.506;2023-11-18T05:51:23;102176.78;;;4.75;100.00
29315;BME280;16320;53.954;9.506;2023-11-18T05:53:52;102181.13;;;4.74;100.00
29315;BME280;16320;53.954;9.506;2023-11-18T05:56:22;102188.91;;;4.76;100.00
29315;BME280;16320;53.954;9.506;2023-11-18T05:58:52;102184.59;;;4.75;100.00
29315;BME280;16320;53.954;9.506;2023-11-18T06:01:21;102181.09;;;4.76;100.00
29315;BME280;16320;53.954;9.506;2023-11-18T06:03:54;102187.19;;;4.78;100.00
29315;BME280;16320;53.954;9.506;2023-11-18T06:06:23;102187.19;;;4.75;100.00
29315;BME280;16320;53.954;9.506;2023-11-18T06:08:53;102187.19;;;4.78;100.00
29315;BME280;16320;53.954;9.506;2023-11-18T06:11:21;102188.06;;;4.74;100.00
29315;BME280;16320;53.954;9.506;2023-11-18T06:13:52;102181.09;;;4.76;100.00
29315;BME280;16320;53.954;9.506;2023-11-18T06:16:22;102174.19;;;4.78;100.00
29315;BME280;16320;53.954;9.506;2023-11-18T06:18:54;102175.88;;;4.76;100.00
29315;BME280;16320;53.954;9.506;2023-11-18T06:21:26;102172.44;;;4.77;100.00
29315;BME280;16320;53.954;9.506;2023-11-18T06:23:59;102175.03;;;4.80;100.00
29315;BME280;16320;53.954;9.506;2023-11-18T06:26:27;102174.19;;;4.76;100.00
29315;BME280;16320;53.954;9.506;2023-11-18T06:28:56;102172.44;;;4.75;100.00
29315;BME280;16320;53.954;9.506;2023-11-18T06:31:26;102174.19;;;4.75;100.00
29315;BME280;16320;53.954;9.506;2023-11-18T06:33:56;102184.59;;;4.75;100.00
29315;BME280;16320;53.954;9.506;2023-11-18T06:36:24;102178.50;;;4.77;100.00
29315;BME280;16320;53.954;9.506;2023-11-18T06:38:53;102183.69;;;4.76;100.00
29315;BME280;16320;53.954;9.506;2023-11-18T06:41:23;102185.44;;;4.75;100.00
29315;BME280;16320;53.954;9.506;2023-11-18T06:43:53;102189.78;;;4.78;100.00
29315;BME280;16320;53.954;9.506;2023-11-18T06:46:32;102193.25;;;4.75;100.00
29315;BME280;16320;53.954;9.506;2023-11-18T06:49:02;102195.84;;;4.79;100.00
29315;BME280;16320;53.954;9.506;2023-11-18T06:51:35;102208.88;;;4.77;100.00
29315;BME280;16320;53.954;9.506;2023-11-18T06:54:05;102213.22;;;4.76;100.00
29315;BME280;16320;53.954;9.506;2023-11-18T06:56:39;102217.59;;;4.73;100.00
29315;BME280;16320;53.954;9.506;2023-11-18T06:59:10;102223.66;;;4.72;100.00
29315;BME280;16320;53.954;9.506;2023-11-18T07:01:41;102226.25;;;4.69;100.00
29315;BME280;16320;53.954;9.506;2023-11-18T07:04:11;102227.09;;;4.71;100.00
29315;BME280;16320;53.954;9.506;2023-11-18T07:06:42;102232.31;;;4.72;100.00
29315;BME280;16320;53.954;9.506;2023-11-18T07:09:12;102232.31;;;4.71;100.00
29315;BME280;16320;53.954;9.506;2023-11-18T07:11:45;102232.31;;;4.72;100.00
29315;BME280;16320;53.954;9.506;2023-11-18T07:14:14;102242.72;;;4.79;100.00
29315;BME280;16320;53.954;9.506;2023-11-18T07:16:44;102236.66;;;4.78;100.00
29315;BME280;16320;53.954;9.506;2023-11-18T07:19:12;102225.34;;;4.81;100.00
29315;BME280;16320;53.954;9.506;2023-11-18T07:21:49;102224.50;;;4.74;100.00
29315;BME280;16320;53.954;9.506;2023-11-18T07:24:17;102209.78;;;4.70;100.00
29315;BME280;16320;53.954;9.506;2023-11-18T07:26:47;102210.66;;;4.63;100.00
29315;BME280;16320;53.954;9.506;2023-11-18T07:29:18;102213.28;;;4.56;100.00
29315;BME280;16320;53.954;9.506;2023-11-18T07:31:46;102219.34;;;4.58;100.00
29315;BME280;16320;53.954;9.506;2023-11-18T07:34:16;102215.84;;;4.63;100.00
29315;BME280;16320;53.954;9.506;2023-11-18T07:36:44;102226.28;;;4.63;100.00
29315;BME280;16320;53.954;9.506;2023-11-18T07:39:14;102221.06;;;4.59;100.00
29315;BME280;16320;53.954;9.506;2023-11-18T07:41:50;102223.66;;;4.61;100.00
29315;BME280;16320;53.954;9.506;2023-11-18T07:44:19;102223.69;;;4.59;100.00
29315;BME280;16320;53.954;9.506;2023-11-18T07:46:48;102218.47;;;4.59;100.00
29315;BME280;16320;53.954;9.506;2023-11-18T07:49:16;102219.31;;;4.68;100.00
29315;BME280;16320;53.954;9.506;2023-11-18T07:51:44;102220.19;;;4.71;100.00
29315;BME280;16320;53.954;9.506;2023-11-18T07:54:12;102228.84;;;4.78;100.00
29315;BME280;16320;53.954;9.506;2023-11-18T07:56:40;102221.88;;;4.85;100.00
29315;BME280;16320;53.954;9.506;2023-11-18T07:59:09;102224.47;;;4.89;100.00
29315;BME280;16320;53.954;9.506;2023-11-18T08:01:43;102218.38;;;4.90;100.00
29315;BME280;16320;53.954;9.506;2023-11-18T08:04:14;102216.63;;;4.94;100.00
29315;BME280;16320;53.954;9.506;2023-11-18T08:06:44;102230.50;;;4.96;100.00
29315;BME280;16320;53.954;9.506;2023-11-18T08:09:14;102222.69;;;4.98;100.00
29315;BME280;16320;53.954;9.506;2023-11-18T08:11:49;102228.75;;;5.01;100.00
29315;BME280;16320;53.954;9.506;2023-11-18T08:14:18;102226.16;;;5.00;100.00
29315;BME280;16320;53.954;9.506;2023-11-18T08:16:47;102214.00;;;4.97;100.00
29315;BME280;16320;53.954;9.506;2023-11-18T08:19:16;102213.97;;;4.99;100.00
29315;BME280;16320;53.954;9.506;2023-11-18T08:21:45;102212.28;;;4.98;100.00
29315;BME280;16320;53.954;9.506;2023-11-18T08:24:14;102206.16;;;5.00;100.00
29315;BME280;16320;53.954;9.506;2023-11-18T08:26:42;102207.06;;;5.01;100.00
29315;BME280;16320;53.954;9.506;2023-11-18T08:29:10;102199.25;;;4.96;100.00
29315;BME280;16320;53.954;9.506;2023-11-18T08:31:39;102194.91;;;4.93;100.00
29315;BME280;16320;53.954;9.506;2023-11-18T08:34:07;102191.44;;;4.98;100.00
29315;BME280;16320;53.954;9.506;2023-11-18T08:36:37;102183.63;;;5.01;100.00
29315;BME280;16320;53.954;9.506;2023-11-18T08:39:06;102174.94;;;4.97;100.00
29315;BME280;16320;53.954;9.506;2023-11-18T08:41:38;102172.31;;;5.02;100.00
29315;BME280;16320;53.954;9.506;2023-11-18T08:44:06;102166.25;;;5.03;100.00
29315;BME280;16320;53.954;9.506;2023-11-18T08:46:52;102161.88;;;5.02;100.00
29315;BME280;16320;53.954;9.506;2023-11-18T08:49:21;102160.09;;;5.11;100.00
29315;BME280;16320;53.954;9.506;2023-11-18T08:51:50;102162.69;;;5.14;100.00
29315;BME280;16320;53.954;9.506;2023-11-18T08:54:23;102162.66;;;5.19;100.00
29315;BME280;16320;53.954;9.506;2023-11-18T08:56:52;102155.69;;;5.23;100.00
29315;BME280;16320;53.954;9.506;2023-11-18T08:59:22;102155.69;;;5.20;100.00
29315;BME280;16320;53.954;9.506;2023-11-18T09:01:52;102164.44;;;5.14;100.00
29315;BME280;16320;53.954;9.506;2023-11-18T09:04:23;102160.06;;;5.16;100.00
29315;BME280;16320;53.954;9.506;2023-11-18T09:06:52;102156.59;;;5.17;100.00
29315;BME280;16320;53.954;9.506;2023-11-18T09:09:21;102148.81;;;5.11;100.00
29315;BME280;16320;53.954;9.506;2023-11-18T09:11:55;102147.09;;;5.10;100.00
29315;BME280;16320;53.954;9.506;2023-11-18T09:14:25;102142.78;;;5.09;100.00
29315;BME280;16320;53.954;9.506;2023-11-18T09:16:54;102141.00;;;5.14;100.00
29315;BME280;16320;53.954;9.506;2023-11-18T09:19:23;102161.00;;;5.09;100.00
29315;BME280;16320;53.954;9.506;2023-11-18T09:21:51;102150.56;;;5.12;100.00
29315;BME280;16320;53.954;9.506;2023-11-18T09:24:21;102148.81;;;5.11;100.00
29315;BME280;16320;53.954;9.506;2023-11-18T09:26:52;102151.44;;;5.11;100.00
29315;BME280;16320;53.954;9.506;2023-11-18T09:29:22;102142.69;;;5.18;100.00
29315;BME280;16320;53.954;9.506;2023-11-18T09:31:51;102139.19;;;5.22;100.00
29315;BME280;16320;53.954;9.506;2023-11-18T09:34:21;102137.41;;;5.30;100.00
29315;BME280;16320;53.954;9.506;2023-11-18T09:36:54;102129.59;;;5.32;100.00
29315;BME280;16320;53.954;9.506;2023-11-18T09:39:22;102130.41;;;5.39;100.00
29315;BME280;16320;53.954;9.506;2023-11-18T09:42:06;102131.16;;;5.52;100.00
29315;BME280;16320;53.954;9.506;2023-11-18T09:44:37;102121.50;;;5.64;100.00
29315;BME280;16320;53.954;9.506;2023-11-18T09:47:08;102123.16;;;5.72;100.00
29315;BME280;16320;53.954;9.506;2023-11-18T09:49:45;102118.75;;;5.78;100.00
29315;BME280;16320;53.954;9.506;2023-11-18T09:52:16;102117.00;;;5.82;100.00
29315;BME280;16320;53.954;9.506;2023-11-18T09:55:09;102103.03;;;5.89;100.00
29315;BME280;16320;53.954;9.506;2023-11-18T09:57:44;102100.38;;;5.92;100.00
29315;BME280;16320;53.954;9.506;2023-11-18T10:00:24;102105.53;;;6.04;100.00
29315;BME280;16320;53.954;9.506;2023-11-18T10:02:54;102120.16;;;6.16;100.00
29315;BME280;16320;53.954;9.506;2023-11-18T10:05:24;102117.47;;;6.24;100.00
29315;BME280;16320;53.954;9.506;2023-11-18T10:07:54;102110.31;;;6.40;100.00
29315;BME280;16320;53.954;9.506;2023-11-18T10:10:25;102108.31;;;6.62;100.00
29315;BME280;16320;53.954;9.506;2023-11-18T10:13:05;102076.81;;;6.74;100.00
29315;BME280;16320;53.954;9.506;2023-11-18T10:15:51;102071.22;;;6.99;100.00
29315;BME280;16320;53.954;9.506;2023-11-18T10:18:21;102057.13;;;7.09;100.00
29315;BME280;16320;53.954;9.506;2023-11-18T10:20:51;102043.94;;;7.19;100.00
29315;BME280;16320;53.954;9.506;2023-11-18T10:23:23;102027.25;;;7.26;100.00
29315;BME280;16320;53.954;9.506;2023-11-18T10:25:56;102024.56;;;7.30;100.00
29315;BME280;16320;53.954;9.506;2023-11-18T10:28:25;102006.22;;;7.33;100.00
29315;BME280;16320;53.954;9.506;2023-11-18T10:30:57;102014.69;;;7.46;100.00
29315;BME280;16320;53.954;9.506;2023-11-18T10:33:26;102005.78;;;7.57;100.00
29315;BME280;16320;53.954;9.506;2023-11-18T10:35:59;101998.66;;;7.65;100.00
29315;BME280;16320;53.954;9.506;2023-11-18T10:38:39;102001.19;;;7.69;100.00
29315;BME280;16320;53.954;9.506;2023-11-18T10:41:10;101996.69;;;7.76;100.00
29315;BME280;16320;53.954;9.506;2023-11-18T10:43:43;101986.97;;;7.83;100.00
29315;BME280;16320;53.954;9.506;2023-11-18T10:46:12;101971.59;;;7.67;100.00
29315;BME280;16320;53.954;9.506;2023-11-18T10:48:46;101967.34;;;7.60;100.00
29315;BME280;16320;53.954;9.506;2023-11-18T10:51:20;101972.41;;;7.69;100.00
29315;BME280;16320;53.954;9.506;2023-11-18T10:53:53;101965.41;;;7.72;100.00
29315;BME280;16320;53.954;9.506;2023-11-18T10:56:28;101949.88;;;7.64;100.00
29315;BME280;16320;53.954;9.506;2023-11-18T11:01:37;101916.94;;;7.54;100.00
29315;BME280;16320;53.954;9.506;2023-11-18T11:04:11;101935.13;;;7.60;100.00
29315;BME280;16320;53.954;9.506;2023-11-18T11:06:45;101929.06;;;7.58;100.00
29315;BME280;16320;53.954;9.506;2023-11-18T11:09:20;101916.94;;;7.54;100.00
29315;BME280;16320;53.954;9.506;2023-11-18T11:11:59;101928.00;;;7.68;100.00
29315;BME280;16320;53.954;9.506;2023-11-18T11:14:34;101911.31;;;7.75;100.00
29315;BME280;16320;53.954;9.506;2023-11-18T11:17:10;101900.91;;;7.72;100.00
29315;BME280;16320;53.954;9.506;2023-11-18T11:20:07;101908.66;;;7.77;100.00
29315;BME280;16320;53.954;9.506;2023-11-18T11:25:50;101887.06;;;7.67;100.00
29315;BME280;16320;53.954;9.506;2023-11-18T11:28:34;101887.25;;;7.58;100.00
29315;BME280;16320;53.954;9.506;2023-11-18T11:31:21;101892.59;;;7.51;100.00
29315;BME280;16320;53.954;9.506;2023-11-18T11:34:16;101887.31;;;7.55;100.00
29315;BME280;16320;53.954;9.506;2023-11-18T11:36:50;101888.16;;;7.55;100.00
29315;BME280;16320;53.954;9.506;2023-11-18T11:39:20;101883.88;;;7.53;100.00
29315;BME280;16320;53.954;9.506;2023-11-18T11:41:53;101889.03;;;7.56;100.00
29315;BME280;16320;53.954;9.506;2023-11-18T11:44:23;101897.75;;;7.55;100.00
29315;BME280;16320;53.954;9.506;2023-11-18T11:47:01;101914.31;;;7.55;100.00
29315;BME280;16320;53.954;9.506;2023-11-18T11:50:11;101898.63;;;7.55;100.00
29315;BME280;16320;53.954;9.506;2023-11-18T11:52:58;101898.53;;;7.60;100.00
29315;BME280;16320;53.954;9.506;2023-11-18T11:55:38;101894.22;;;7.57;100.00
29315;BME280;16320;53.954;9.506;2023-11-18T11:58:34;101888.06;;;7.60;100.00
29315;BME280;16320;53.954;9.506;2023-11-18T12:01:27;101888.97;;;7.59;100.00
29315;BME280;16320;53.954;9.506;2023-11-18T12:04:09;101883.81;;;7.56;100.00
29315;BME280;16320;53.954;9.506;2023-11-18T12:06:48;101888.25;;;7.50;100.00
29315;BME280;16320;53.954;9.506;2023-11-18T12:09:31;101876.94;;;7.50;100.00
29315;BME280;16320;53.954;9.506;2023-11-18T12:12:17;101872.56;;;7.50;100.00
29315;BME280;16320;53.954;9.506;2023-11-18T12:14:55;101869.94;;;7.50;100.00
29315;BME280;16320;53.954;9.506;2023-11-18T12:17:24;101870.84;;;7.49;100.00
29315;BME280;16320;53.954;9.506;2023-11-18T12:19:59;101873.41;;;7.53;100.00
29315;BME280;16320;53.954;9.506;2023-11-18T12:23:03;101883.88;;;7.53;100.00
29315;BME280;16320;53.954;9.506;2023-11-18T12:25:44;101888.09;;;7.58;100.00
29315;BME280;16320;53.954;9.506;2023-11-18T12:28:17;101885.34;;;7.64;100.00
29315;BME280;16320;53.954;9.506;2023-11-18T12:30:48;101885.38;;;7.63;100.00
29315;BME280;16320;53.954;9.506;2023-11-18T12:37:05;101878.38;;;7.65;100.00
29315;BME280;16320;53.954;9.506;2023-11-18T12:43:02;101874.16;;;7.58;100.00
29315;BME280;16320;53.954;9.506;2023-11-18T12:45:58;101862.97;;;7.51;100.00
29315;BME280;16320;53.954;9.506;2023-11-18T12:48:34;101866.56;;;7.45;100.00
29315;BME280;16320;53.954;9.506;2023-11-18T12:51:06;101874.44;;;7.44;100.00
29315;BME280;16320;53.954;9.506;2023-11-18T12:53:40;101877.03;;;7.45;100.00
29315;BME280;16320;53.954;9.506;2023-11-18T12:56:11;101864.81;;;7.47;100.00
29315;BME280;16320;53.954;9.506;2023-11-18T12:58:41;101852.66;;;7.45;100.00
29315;BME280;16320;53.954;9.506;2023-11-18T13:01:10;101849.25;;;7.41;100.00
29315;BME280;16320;53.954;9.506;2023-11-18T13:03:43;101858.91;;;7.38;100.00
29315;BME280;16320;53.954;9.506;2023-11-18T13:06:12;101854.53;;;7.38;100.00
29315;BME280;16320;53.954;9.506;2023-11-18T13:08:41;101853.72;;;7.35;100.00
29315;BME280;16320;53.954;9.506;2023-11-18T13:11:10;101852.00;;;7.33;100.00
29315;BME280;16320;53.954;9.506;2023-11-18T13:13:43;101852.94;;;7.29;100.00
29315;BME280;16320;53.954;9.506;2023-11-18T13:16:12;101839.94;;;7.28;100.00
29315;BME280;16320;53.954;9.506;2023-11-18T13:18:48;101848.59;;;7.30;100.00
29315;BME280;16320;53.954;9.506;2023-11-18T13:21:26;101833.78;;;7.29;100.00
29315;BME280;16320;53.954;9.506;2023-11-18T13:23:56;101825.06;;;7.30;100.00
29315;BME280;16320;53.954;9.506;2023-11-18T13:26:26;101814.69;;;7.27;100.00